sensor_id;sensor_type;location;lat;lon;timestamp;P1;durP1;ratioP1;P2;durP2;ratioP2
18947;SDS011;9607;51.600;7.558;2023-12-20T00:00:20;59.05;;;22.08;;
18947;SDS011;9607;51.600;7.558;2023-12-20T00:02:47;57.28;;;22.55;;
18947;SDS011;9607;51.600;7.558;2023-12-20T00:05:14;64.10;;;21.25;;
18947;SDS011;9607;51.600;7.558;2023-12-20T00:07:40;65.20;;;24.05;;
18947;SDS011;9607;51.600;7.558;2023-12-20T00:10:09;61.97;;;21.85;;
18947;SDS011;9607;51.600;7.558;2023-12-20T00:12:38;61.58;;;22.17;;
18947;SDS011;9607;51.600;7.558;2023-12-20T00:15:06;64.65;;;24.33;;
18947;SDS011;9607;51.600;7.558;2023-12-20T00:17:32;65.25;;;23.10;;
18947;SDS011;9607;51.600;7.558;2023-12-20T00:19:59;61.08;;;22.17;;
18947;SDS011;9607;51.600;7.558;2023-12-20T00:22:25;66.47;;;23.02;;
18947;SDS011;9607;51.600;7.558;2023-12-20T00:24:52;66.00;;;23.50;;
18947;SDS011;9607;51.600;7.558;2023-12-20T00:27:20;58.25;;;21.73;;
18947;SDS011;9607;51.600;7.558;2023-12-20T00:29:48;69.18;;;23.88;;
18947;SDS011;9607;51.600;7.558;2023-12-20T00:32:15;64.97;;;22.65;;
18947;SDS011;9607;51.600;7.558;2023-12-20T00:34:43;64.28;;;22.23;;
18947;SDS011;9607;51.600;7.558;2023-12-20T00:37:10;72.07;;;22.80;;
18947;SDS011;9607;51.600;7.558;2023-12-20T00:39:36;70.13;;;24.27;;
18947;SDS011;9607;51.600;7.558;2023-12-20T00:42:04;72.30;;;24.08;;
18947;SDS011;9607;51.600;7.558;2023-12-20T00:44:32;76.93;;;25.02;;
18947;SDS011;9607;51.600;7.558;2023-12-20T00:46:59;72.53;;;24.48;;
18947;SDS011;9607;51.600;7.558;2023-12-20T00:49:26;71.53;;;23.52;;
18947;SDS011;9607;51.600;7.558;2023-12-20T00:51:53;69.13;;;23.08;;
18947;SDS011;9607;51.600;7.558;2023-12-20T00:54:19;64.82;;;22.20;;
18947;SDS011;9607;51.600;7.558;2023-12-20T00:56:47;58.92;;;21.92;;
18947;SDS011;9607;51.600;7.558;2023-12-20T00:59:13;57.90;;;21.90;;
18947;SDS011;9607;51.600;7.558;2023-12-20T01:01:42;62.10;;;21.63;;
18947;SDS011;9607;51.600;7.558;2023-12-20T01:04:09;50.80;;;19.98;;
18947;SDS011;9607;51.600;7.558;2023-12-20T01:06:36;61.05;;;21.23;;
18947;SDS011;9607;51.600;7.558;2023-12-20T01:09:02;62.20;;;20.63;;
18947;SDS011;9607;51.600;7.558;2023-12-20T01:11:29;51.83;;;19.95;;
18947;SDS011;9607;51.600;7.558;2023-12-20T01:13:56;50.17;;;19.10;;
18947;SDS011;9607;51.600;7.558;2023-12-20T01:16:23;42.08;;;17.80;;
18947;SDS011;9607;51.600;7.558;2023-12-20T01:18:51;42.15;;;17.25;;
18947;SDS011;9607;51.600;7.558;2023-12-20T01:21:18;44.33;;;17.33;;
18947;SDS011;9607;51.600;7.558;2023-12-20T01:23:43;39.25;;;16.25;;
18947;SDS011;9607;51.600;7.558;2023-12-20T01:26:10;43.70;;;16.30;;
18947;SDS011;9607;51.600;7.558;2023-12-20T01:28:37;40.97;;;15.77;;
18947;SDS011;9607;51.600;7.558;2023-12-20T01:31:04;36.42;;;15.43;;
18947;SDS011;9607;51.600;7.558;2023-12-20T01:33:31;38.13;;;14.27;;
18947;SDS011;9607;51.600;7.558;2023-12-20T01:35:59;30.27;;;13.25;;
18947;SDS011;9607;51.600;7.558;2023-12-20T01:38:29;32.03;;;11.98;;
18947;SDS011;9607;51.600;7.558;2023-12-20T01:40:57;24.95;;;10.85;;
18947;SDS011;9607;51.600;7.558;2023-12-20T01:43:24;23.35;;;10.18;;
18947;SDS011;9607;51.600;7.558;2023-12-20T01:45:51;21.38;;;9.20;;
18947;SDS011;9607;51.600;7.558;2023-12-20T01:48:18;20.90;;;8.30;;
18947;SDS011;9607;51.600;7.558;2023-12-20T01:50:46;24.70;;;8.40;;
18947;SDS011;9607;51.600;7.558;2023-12-20T01:53:15;20.67;;;7.60;;
18947;SDS011;9607;51.600;7.558;2023-12-20T01:55:43;24.75;;;7.60;;
18947;SDS011;9607;51.600;7.558;2023-12-20T01:58:10;20.40;;;7.28;;
18947;SDS011;9607;51.600;7.558;2023-12-20T02:00:38;19.27;;;6.60;;
18947;SDS011;9607;51.600;7.558;2023-12-20T02:03:05;26.30;;;7.13;;
18947;SDS011;9607;51.600;7.558;2023-12-20T02:05:33;19.27;;;6.57;;
18947;SDS011;9607;51.600;7.558;2023-12-20T02:08:01;17.30;;;7.10;;
18947;SDS011;9607;51.600;7.558;2023-12-20T02:10:30;15.88;;;6.65;;
18947;SDS011;9607;51.600;7.558;2023-12-20T02:12:57;14.38;;;5.80;;
18947;SDS011;9607;51.600;7.558;2023-12-20T02:15:24;17.85;;;6.32;;
18947;SDS011;9607;51.600;7.558;2023-12-20T02:17:51;19.77;;;6.68;;
18947;SDS011;9607;51.600;7.558;2023-12-20T02:20:17;16.83;;;7.00;;
18947;SDS011;9607;51.600;7.558;2023-12-20T02:22:46;17.92;;;6.45;;
18947;SDS011;9607;51.600;7.558;2023-12-20T02:25:13;19.55;;;6.50;;
18947;SDS011;9607;51.600;7.558;2023-12-20T02:27:40;13.50;;;5.95;;
18947;SDS011;9607;51.600;7.558;2023-12-20T02:30:08;18.23;;;6.65;;
18947;SDS011;9607;51.600;7.558;2023-12-20T02:32:36;19.40;;;6.47;;
18947;SDS011;9607;51.600;7.558;2023-12-20T02:35:03;16.83;;;6.38;;
18947;SDS011;9607;51.600;7.558;2023-12-20T02:37:30;23.45;;;6.82;;
18947;SDS011;9607;51.600;7.558;2023-12-20T02:39:59;20.65;;;7.15;;
18947;SDS011;9607;51.600;7.558;2023-12-20T02:42:26;22.13;;;6.60;;
18947;SDS011;9607;51.600;7.558;2023-12-20T02:44:53;25.27;;;6.93;;
18947;SDS011;9607;51.600;7.558;2023-12-20T02:47:20;20.48;;;6.82;;
18947;SDS011;9607;51.600;7.558;2023-12-20T02:49:48;16.38;;;7.05;;
18947;SDS011;9607;51.600;7.558;2023-12-20T02:52:17;20.52;;;7.40;;
18947;SDS011;9607;51.600;7.558;2023-12-20T02:54:44;16.40;;;7.38;;
18947;SDS011;9607;51.600;7.558;2023-12-20T02:57:12;20.10;;;7.93;;
18947;SDS011;9607;51.600;7.558;2023-12-20T02:59:39;24.20;;;8.60;;
18947;SDS011;9607;51.600;7.558;2023-12-20T03:02:07;18.98;;;7.82;;
18947;SDS011;9607;51.600;7.558;2023-12-20T03:04:33;28.63;;;8.90;;
18947;SDS011;9607;51.600;7.558;2023-12-20T03:07:00;26.13;;;9.05;;
18947;SDS011;9607;51.600;7.558;2023-12-20T03:09:27;18.98;;;8.05;;
18947;SDS011;9607;51.600;7.558;2023-12-20T03:11:54;32.70;;;8.43;;
18947;SDS011;9607;51.600;7.558;2023-12-20T03:14:22;23.15;;;7.43;;
18947;SDS011;9607;51.600;7.558;2023-12-20T03:16:49;16.55;;;7.78;;
18947;SDS011;9607;51.600;7.558;2023-12-20T03:19:16;22.88;;;7.82;;
18947;SDS011;9607;51.600;7.558;2023-12-20T03:21:43;19.23;;;8.15;;
18947;SDS011;9607;51.600;7.558;2023-12-20T03:24:10;21.73;;;8.73;;
18947;SDS011;9607;51.600;7.558;2023-12-20T03:26:37;24.00;;;7.50;;
18947;SDS011;9607;51.600;7.558;2023-12-20T03:29:04;25.25;;;7.72;;
18947;SDS011;9607;51.600;7.558;2023-12-20T03:31:32;25.00;;;8.35;;
18947;SDS011;9607;51.600;7.558;2023-12-20T03:33:59;19.55;;;7.65;;
18947;SDS011;9607;51.600;7.558;2023-12-20T03:36:27;22.55;;;7.78;;
18947;SDS011;9607;51.600;7.558;2023-12-20T03:38:53;27.88;;;8.02;;
18947;SDS011;9607;51.600;7.558;2023-12-20T03:41:20;26.40;;;7.45;;
18947;SDS011;9607;51.600;7.558;2023-12-20T03:43:47;21.45;;;7.15;;
18947;SDS011;9607;51.600;7.558;2023-12-20T03:46:14;25.02;;;7.85;;
18947;SDS011;9607;51.600;7.558;2023-12-20T03:48:42;18.05;;;8.40;;
18947;SDS011;9607;51.600;7.558;2023-12-20T03:51:09;20.95;;;7.65;;
18947;SDS011;9607;51.600;7.558;2023-12-20T03:53:36;21.30;;;7.28;;
18947;SDS011;9607;51.600;7.558;2023-12-20T03:56:03;25.90;;;8.45;;
18947;SDS011;9607;51.600;7.558;2023-12-20T03:58:30;23.70;;;8.13;;
18947;SDS011;9607;51.600;7.558;2023-12-20T04:00:57;27.90;;;9.70;;
18947;SDS011;9607;51.600;7.558;2023-12-20T04:03:24;29.42;;;9.93;;
18947;SDS011;9607;51.600;7.558;2023-12-20T04:05:52;24.73;;;9.60;;
18947;SDS011;9607;51.600;7.558;2023-12-20T04:08:19;26.80;;;9.05;;
18947;SDS011;9607;51.600;7.558;2023-12-20T04:10:46;22.33;;;9.13;;
18947;SDS011;9607;51.600;7.558;2023-12-20T04:13:12;27.92;;;10.25;;
18947;SDS011;9607;51.600;7.558;2023-12-20T04:15:39;23.50;;;9.80;;
18947;SDS011;9607;51.600;7.558;2023-12-20T04:18:06;35.25;;;11.98;;
18947;SDS011;9607;51.600;7.558;2023-12-20T04:20:33;29.48;;;10.15;;
18947;SDS011;9607;51.600;7.558;2023-12-20T04:23:01;28.85;;;9.55;;
18947;SDS011;9607;51.600;7.558;2023-12-20T04:25:28;27.85;;;10.30;;
18947;SDS011;9607;51.600;7.558;2023-12-20T04:27:55;24.90;;;10.20;;
18947;SDS011;9607;51.600;7.558;2023-12-20T04:30:21;30.63;;;10.50;;
18947;SDS011;9607;51.600;7.558;2023-12-20T04:32:48;34.80;;;11.20;;
18947;SDS011;9607;51.600;7.558;2023-12-20T04:35:15;33.95;;;11.35;;
18947;SDS011;9607;51.600;7.558;2023-12-20T04:37:42;36.08;;;11.85;;
18947;SDS011;9607;51.600;7.558;2023-12-20T04:40:11;37.42;;;12.20;;
18947;SDS011;9607;51.600;7.558;2023-12-20T04:42:38;36.25;;;12.65;;
18947;SDS011;9607;51.600;7.558;2023-12-20T04:45:05;32.83;;;12.63;;
18947;SDS011;9607;51.600;7.558;2023-12-20T04:47:32;40.97;;;13.88;;
18947;SDS011;9607;51.600;7.558;2023-12-20T04:49:59;28.48;;;12.88;;
18947;SDS011;9607;51.600;7.558;2023-12-20T04:52:27;30.92;;;11.38;;
18947;SDS011;9607;51.600;7.558;2023-12-20T04:54:54;28.95;;;11.70;;
18947;SDS011;9607;51.600;7.558;2023-12-20T04:57:22;39.92;;;12.00;;
18947;SDS011;9607;51.600;7.558;2023-12-20T04:59:49;26.08;;;11.52;;
18947;SDS011;9607;51.600;7.558;2023-12-20T05:02:16;28.98;;;11.40;;
18947;SDS011;9607;51.600;7.558;2023-12-20T05:04:43;28.67;;;11.48;;
18947;SDS011;9607;51.600;7.558;2023-12-20T05:07:10;31.17;;;10.93;;
18947;SDS011;9607;51.600;7.558;2023-12-20T05:09:36;36.03;;;11.60;;
18947;SDS011;9607;51.600;7.558;2023-12-20T05:12:03;32.92;;;11.43;;
18947;SDS011;9607;51.600;7.558;2023-12-20T05:14:32;32.55;;;11.60;;
18947;SDS011;9607;51.600;7.558;2023-12-20T05:16:59;25.42;;;10.80;;
18947;SDS011;9607;51.600;7.558;2023-12-20T05:19:26;36.80;;;13.32;;
18947;SDS011;9607;51.600;7.558;2023-12-20T05:21:53;36.17;;;12.45;;
18947;SDS011;9607;51.600;7.558;2023-12-20T05:24:20;29.30;;;12.55;;
18947;SDS011;9607;51.600;7.558;2023-12-20T05:26:46;28.27;;;11.70;;
18947;SDS011;9607;51.600;7.558;2023-12-20T05:29:13;26.85;;;11.32;;
18947;SDS011;9607;51.600;7.558;2023-12-20T05:31:41;29.88;;;12.40;;
18947;SDS011;9607;51.600;7.558;2023-12-20T05:34:09;30.20;;;14.05;;
18947;SDS011;9607;51.600;7.558;2023-12-20T05:36:36;38.20;;;12.65;;
18947;SDS011;9607;51.600;7.558;2023-12-20T05:39:04;30.80;;;11.55;;
18947;SDS011;9607;51.600;7.558;2023-12-20T05:41:31;34.42;;;12.35;;
18947;SDS011;9607;51.600;7.558;2023-12-20T05:43:58;31.20;;;11.55;;
18947;SDS011;9607;51.600;7.558;2023-12-20T05:46:24;38.30;;;12.68;;
18947;SDS011;9607;51.600;7.558;2023-12-20T05:48:54;28.17;;;12.68;;
18947;SDS011;9607;51.600;7.558;2023-12-20T05:51:21;28.02;;;12.90;;
18947;SDS011;9607;51.600;7.558;2023-12-20T05:53:47;29.10;;;13.80;;
18947;SDS011;9607;51.600;7.558;2023-12-20T05:56:15;31.60;;;14.00;;
18947;SDS011;9607;51.600;7.558;2023-12-20T05:58:41;28.17;;;12.55;;
18947;SDS011;9607;51.600;7.558;2023-12-20T06:01:08;29.42;;;13.77;;
18947;SDS011;9607;51.600;7.558;2023-12-20T06:03:36;31.95;;;13.45;;
18947;SDS011;9607;51.600;7.558;2023-12-20T06:06:06;39.85;;;13.60;;
18947;SDS011;9607;51.600;7.558;2023-12-20T06:08:33;30.15;;;13.20;;
18947;SDS011;9607;51.600;7.558;2023-12-20T06:11:00;32.78;;;13.90;;
18947;SDS011;9607;51.600;7.558;2023-12-20T06:13:27;31.42;;;13.30;;
18947;SDS011;9607;51.600;7.558;2023-12-20T06:15:54;35.55;;;12.70;;
18947;SDS011;9607;51.600;7.558;2023-12-20T06:18:21;28.30;;;13.10;;
18947;SDS011;9607;51.600;7.558;2023-12-20T06:20:49;32.30;;;13.00;;
18947;SDS011;9607;51.600;7.558;2023-12-20T06:23:17;33.97;;;13.43;;
18947;SDS011;9607;51.600;7.558;2023-12-20T06:25:44;28.73;;;11.75;;
18947;SDS011;9607;51.600;7.558;2023-12-20T06:28:12;36.67;;;13.27;;
18947;SDS011;9607;51.600;7.558;2023-12-20T06:30:39;37.08;;;12.88;;
18947;SDS011;9607;51.600;7.558;2023-12-20T06:33:06;26.73;;;11.55;;
18947;SDS011;9607;51.600;7.558;2023-12-20T06:35:35;28.02;;;13.02;;
18947;SDS011;9607;51.600;7.558;2023-12-20T06:38:01;32.60;;;12.02;;
18947;SDS011;9607;51.600;7.558;2023-12-20T06:40:30;33.80;;;11.77;;
18947;SDS011;9607;51.600;7.558;2023-12-20T06:42:57;29.52;;;11.70;;
18947;SDS011;9607;51.600;7.558;2023-12-20T06:45:24;34.17;;;12.55;;
18947;SDS011;9607;51.600;7.558;2023-12-20T06:47:51;27.85;;;10.85;;
18947;SDS011;9607;51.600;7.558;2023-12-20T06:50:19;29.83;;;10.52;;
18947;SDS011;9607;51.600;7.558;2023-12-20T06:52:46;24.63;;;11.20;;
18947;SDS011;9607;51.600;7.558;2023-12-20T06:55:13;25.90;;;10.05;;
18947;SDS011;9607;51.600;7.558;2023-12-20T06:57:41;36.50;;;9.90;;
18947;SDS011;9607;51.600;7.558;2023-12-20T07:00:08;33.08;;;12.45;;
18947;SDS011;9607;51.600;7.558;2023-12-20T07:02:37;26.35;;;10.65;;
18947;SDS011;9607;51.600;7.558;2023-12-20T07:05:04;31.00;;;11.55;;
18947;SDS011;9607;51.600;7.558;2023-12-20T07:07:32;27.55;;;10.43;;
18947;SDS011;9607;51.600;7.558;2023-12-20T07:09:58;28.58;;;9.98;;
18947;SDS011;9607;51.600;7.558;2023-12-20T07:12:26;22.65;;;9.07;;
18947;SDS011;9607;51.600;7.558;2023-12-20T07:14:54;25.33;;;9.95;;
18947;SDS011;9607;51.600;7.558;2023-12-20T07:17:21;23.17;;;9.27;;
18947;SDS011;9607;51.600;7.558;2023-12-20T07:19:48;27.38;;;10.50;;
18947;SDS011;9607;51.600;7.558;2023-12-20T07:22:14;32.83;;;10.48;;
18947;SDS011;9607;51.600;7.558;2023-12-20T07:24:41;24.98;;;10.63;;
18947;SDS011;9607;51.600;7.558;2023-12-20T07:27:08;29.40;;;10.52;;
18947;SDS011;9607;51.600;7.558;2023-12-20T07:29:35;24.48;;;9.82;;
18947;SDS011;9607;51.600;7.558;2023-12-20T07:32:04;23.90;;;9.90;;
18947;SDS011;9607;51.600;7.558;2023-12-20T07:34:33;28.60;;;9.77;;
18947;SDS011;9607;51.600;7.558;2023-12-20T07:37:01;27.38;;;9.73;;
18947;SDS011;9607;51.600;7.558;2023-12-20T07:39:27;25.90;;;9.73;;
18947;SDS011;9607;51.600;7.558;2023-12-20T07:41:54;20.80;;;8.75;;
18947;SDS011;9607;51.600;7.558;2023-12-20T07:44:21;26.48;;;9.57;;
18947;SDS011;9607;51.600;7.558;2023-12-20T07:46:48;19.35;;;9.55;;
18947;SDS011;9607;51.600;7.558;2023-12-20T07:49:16;26.67;;;8.85;;
18947;SDS011;9607;51.600;7.558;2023-12-20T07:51:43;24.98;;;9.38;;
18947;SDS011;9607;51.600;7.558;2023-12-20T07:54:10;32.17;;;9.10;;
18947;SDS011;9607;51.600;7.558;2023-12-20T07:56:37;24.70;;;10.55;;
18947;SDS011;9607;51.600;7.558;2023-12-20T07:59:05;23.10;;;8.50;;
18947;SDS011;9607;51.600;7.558;2023-12-20T08:01:31;29.40;;;8.35;;
18947;SDS011;9607;51.600;7.558;2023-12-20T08:03:58;24.25;;;7.07;;
18947;SDS011;9607;51.600;7.558;2023-12-20T08:06:26;15.13;;;6.88;;
18947;SDS011;9607;51.600;7.558;2023-12-20T08:08:53;14.98;;;7.22;;
18947;SDS011;9607;51.600;7.558;2023-12-20T08:11:20;26.05;;;9.35;;
18947;SDS011;9607;51.600;7.558;2023-12-20T08:13:47;24.13;;;8.55;;
18947;SDS011;9607;51.600;7.558;2023-12-20T08:16:14;21.67;;;7.88;;
18947;SDS011;9607;51.600;7.558;2023-12-20T08:18:42;23.63;;;7.70;;
18947;SDS011;9607;51.600;7.558;2023-12-20T08:21:09;25.25;;;8.02;;
18947;SDS011;9607;51.600;7.558;2023-12-20T08:23:38;23.92;;;8.55;;
18947;SDS011;9607;51.600;7.558;2023-12-20T08:26:07;22.13;;;7.47;;
18947;SDS011;9607;51.600;7.558;2023-12-20T08:28:34;20.13;;;7.07;;
18947;SDS011;9607;51.600;7.558;2023-12-20T08:31:03;17.95;;;6.47;;
18947;SDS011;9607;51.600;7.558;2023-12-20T08:33:30;16.27;;;7.40;;
18947;SDS011;9607;51.600;7.558;2023-12-20T08:35:57;24.38;;;7.53;;
18947;SDS011;9607;51.600;7.558;2023-12-20T08:38:24;22.27;;;7.43;;
18947;SDS011;9607;51.600;7.558;2023-12-20T08:40:55;18.10;;;6.63;;
18947;SDS011;9607;51.600;7.558;2023-12-20T08:43:22;21.05;;;7.05;;
18947;SDS011;9607;51.600;7.558;2023-12-20T08:45:50;21.83;;;7.47;;
18947;SDS011;9607;51.600;7.558;2023-12-20T08:48:17;14.10;;;6.53;;
18947;SDS011;9607;51.600;7.558;2023-12-20T08:50:46;23.10;;;7.75;;
18947;SDS011;9607;51.600;7.558;2023-12-20T08:53:13;24.17;;;7.38;;
18947;SDS011;9607;51.600;7.558;2023-12-20T08:55:42;16.60;;;6.22;;
18947;SDS011;9607;51.600;7.558;2023-12-20T08:58:10;19.38;;;7.15;;
18947;SDS011;9607;51.600;7.558;2023-12-20T09:00:40;23.15;;;7.72;;
18947;SDS011;9607;51.600;7.558;2023-12-20T09:03:07;14.30;;;6.97;;
18947;SDS011;9607;51.600;7.558;2023-12-20T09:05:34;25.45;;;6.90;;
18947;SDS011;9607;51.600;7.558;2023-12-20T09:08:04;18.50;;;6.93;;
18947;SDS011;9607;51.600;7.558;2023-12-20T09:10:35;19.80;;;6.70;;
18947;SDS011;9607;51.600;7.558;2023-12-20T09:13:03;29.23;;;6.78;;
18947;SDS011;9607;51.600;7.558;2023-12-20T09:15:35;18.52;;;5.32;;
18947;SDS011;9607;51.600;7.558;2023-12-20T09:18:02;18.42;;;6.82;;
18947;SDS011;9607;51.600;7.558;2023-12-20T09:20:29;20.10;;;6.95;;
18947;SDS011;9607;51.600;7.558;2023-12-20T09:22:57;18.70;;;6.57;;
18947;SDS011;9607;51.600;7.558;2023-12-20T09:25:24;18.30;;;6.07;;
18947;SDS011;9607;51.600;7.558;2023-12-20T09:27:51;17.52;;;6.47;;
18947;SDS011;9607;51.600;7.558;2023-12-20T09:30:18;23.17;;;6.63;;
18947;SDS011;9607;51.600;7.558;2023-12-20T09:32:49;25.77;;;7.18;;
18947;SDS011;9607;51.600;7.558;2023-12-20T09:35:17;20.08;;;5.75;;
18947;SDS011;9607;51.600;7.558;2023-12-20T09:37:45;16.83;;;6.35;;
18947;SDS011;9607;51.600;7.558;2023-12-20T09:40:17;16.75;;;5.57;;
18947;SDS011;9607;51.600;7.558;2023-12-20T09:42:47;17.05;;;5.88;;
18947;SDS011;9607;51.600;7.558;2023-12-20T09:45:21;20.10;;;5.93;;
18947;SDS011;9607;51.600;7.558;2023-12-20T09:47:50;18.95;;;6.65;;
18947;SDS011;9607;51.600;7.558;2023-12-20T09:50:19;18.80;;;5.93;;
18947;SDS011;9607;51.600;7.558;2023-12-20T09:52:49;16.75;;;6.90;;
18947;SDS011;9607;51.600;7.558;2023-12-20T09:55:18;18.42;;;6.95;;
18947;SDS011;9607;51.600;7.558;2023-12-20T09:57:47;17.38;;;6.25;;
18947;SDS011;9607;51.600;7.558;2023-12-20T10:00:15;25.55;;;6.05;;
18947;SDS011;9607;51.600;7.558;2023-12-20T10:02:45;18.90;;;6.07;;
18947;SDS011;9607;51.600;7.558;2023-12-20T10:05:25;13.45;;;5.70;;
18947;SDS011;9607;51.600;7.558;2023-12-20T10:07:55;14.00;;;5.22;;
18947;SDS011;9607;51.600;7.558;2023-12-20T10:10:22;16.90;;;5.63;;
18947;SDS011;9607;51.600;7.558;2023-12-20T10:13:01;21.90;;;6.68;;
18947;SDS011;9607;51.600;7.558;2023-12-20T10:15:29;22.60;;;6.00;;
18947;SDS011;9607;51.600;7.558;2023-12-20T10:17:58;11.23;;;4.30;;
18947;SDS011;9607;51.600;7.558;2023-12-20T10:20:26;15.15;;;5.43;;
18947;SDS011;9607;51.600;7.558;2023-12-20T10:22:54;14.98;;;4.68;;
18947;SDS011;9607;51.600;7.558;2023-12-20T10:25:23;17.23;;;5.10;;
18947;SDS011;9607;51.600;7.558;2023-12-20T10:28:08;17.40;;;5.30;;
18947;SDS011;9607;51.600;7.558;2023-12-20T10:30:36;14.20;;;5.78;;
18947;SDS011;9607;51.600;7.558;2023-12-20T10:33:05;10.48;;;4.65;;
18947;SDS011;9607;51.600;7.558;2023-12-20T10:35:36;16.35;;;5.43;;
18947;SDS011;9607;51.600;7.558;2023-12-20T10:38:05;16.15;;;5.15;;
18947;SDS011;9607;51.600;7.558;2023-12-20T10:40:34;21.17;;;5.85;;
18947;SDS011;9607;51.600;7.558;2023-12-20T10:43:03;15.10;;;4.93;;
18947;SDS011;9607;51.600;7.558;2023-12-20T10:45:31;20.98;;;5.97;;
18947;SDS011;9607;51.600;7.558;2023-12-20T10:47:58;17.63;;;5.15;;
18947;SDS011;9607;51.600;7.558;2023-12-20T10:50:28;13.60;;;5.10;;
18947;SDS011;9607;51.600;7.558;2023-12-20T10:52:56;15.73;;;5.10;;
18947;SDS011;9607;51.600;7.558;2023-12-20T10:55:23;18.25;;;6.55;;
18947;SDS011;9607;51.600;7.558;2023-12-20T10:57:51;13.80;;;4.72;;
18947;SDS011;9607;51.600;7.558;2023-12-20T11:00:21;18.75;;;6.38;;
18947;SDS011;9607;51.600;7.558;2023-12-20T11:02:49;19.83;;;6.82;;
18947;SDS011;9607;51.600;7.558;2023-12-20T11:05:20;15.23;;;5.90;;
18947;SDS011;9607;51.600;7.558;2023-12-20T11:07:57;13.55;;;5.57;;
18947;SDS011;9607;51.600;7.558;2023-12-20T11:10:29;18.08;;;6.40;;
18947;SDS011;9607;51.600;7.558;2023-12-20T11:13:02;24.90;;;7.18;;
18947;SDS011;9607;51.600;7.558;2023-12-20T11:15:36;17.52;;;6.40;;
18947;SDS011;9607;51.600;7.558;2023-12-20T11:18:03;18.52;;;6.75;;
18947;SDS011;9607;51.600;7.558;2023-12-20T11:20:35;16.92;;;6.57;;
18947;SDS011;9607;51.600;7.558;2023-12-20T11:23:05;18.13;;;6.25;;
18947;SDS011;9607;51.600;7.558;2023-12-20T11:25:44;16.90;;;7.38;;
18947;SDS011;9607;51.600;7.558;2023-12-20T11:28:20;17.05;;;6.53;;
18947;SDS011;9607;51.600;7.558;2023-12-20T11:30:48;14.18;;;6.28;;
18947;SDS011;9607;51.600;7.558;2023-12-20T11:33:17;21.90;;;6.50;;
18947;SDS011;9607;51.600;7.558;2023-12-20T11:35:48;21.45;;;7.32;;
18947;SDS011;9607;51.600;7.558;2023-12-20T11:38:19;18.02;;;6.20;;
18947;SDS011;9607;51.600;7.558;2023-12-20T11:40:47;13.40;;;5.82;;
18947;SDS011;9607;51.600;7.558;2023-12-20T11:43:29;11.73;;;5.47;;
18947;SDS011;9607;51.600;7.558;2023-12-20T11:45:56;15.48;;;5.65;;
18947;SDS011;9607;51.600;7.558;2023-12-20T11:48:29;20.58;;;6.13;;
18947;SDS011;9607;51.600;7.558;2023-12-20T11:50:57;16.45;;;6.10;;
18947;SDS011;9607;51.600;7.558;2023-12-20T11:53:25;11.65;;;5.35;;
18947;SDS011;9607;51.600;7.558;2023-12-20T11:55:53;18.42;;;5.55;;
18947;SDS011;9607;51.600;7.558;2023-12-20T11:58:21;15.82;;;6.30;;
18947;SDS011;9607;51.600;7.558;2023-12-20T12:00:49;15.50;;;5.40;;
18947;SDS011;9607;51.600;7.558;2023-12-20T12:03:17;13.95;;;6.55;;
18947;SDS011;9607;51.600;7.558;2023-12-20T12:05:46;17.10;;;5.25;;
18947;SDS011;9607;51.600;7.558;2023-12-20T12:08:13;14.80;;;6.65;;
18947;SDS011;9607;51.600;7.558;2023-12-20T12:10:41;12.90;;;6.22;;
18947;SDS011;9607;51.600;7.558;2023-12-20T12:13:08;17.52;;;6.50;;
18947;SDS011;9607;51.600;7.558;2023-12-20T12:15:35;20.33;;;6.70;;
18947;SDS011;9607;51.600;7.558;2023-12-20T12:18:03;17.85;;;7.45;;
18947;SDS011;9607;51.600;7.558;2023-12-20T12:20:31;17.60;;;7.93;;
18947;SDS011;9607;51.600;7.558;2023-12-20T12:22:58;15.45;;;8.52;;
18947;SDS011;9607;51.600;7.558;2023-12-20T12:25:25;23.08;;;7.68;;
18947;SDS011;9607;51.600;7.558;2023-12-20T12:27:55;19.00;;;9.52;;
18947;SDS011;9607;51.600;7.558;2023-12-20T12:30:22;15.98;;;7.78;;
18947;SDS011;9607;51.600;7.558;2023-12-20T12:32:48;19.88;;;8.55;;
18947;SDS011;9607;51.600;7.558;2023-12-20T12:35:17;21.52;;;8.43;;
18947;SDS011;9607;51.600;7.558;2023-12-20T12:37:44;21.83;;;8.82;;
18947;SDS011;9607;51.600;7.558;2023-12-20T12:40:12;22.23;;;8.70;;
18947;SDS011;9607;51.600;7.558;2023-12-20T12:42:40;16.83;;;8.27;;
18947;SDS011;9607;51.600;7.558;2023-12-20T12:45:10;19.98;;;7.88;;
18947;SDS011;9607;51.600;7.558;2023-12-20T12:47:37;22.23;;;8.50;;
18947;SDS011;9607;51.600;7.558;2023-12-20T12:50:05;14.57;;;7.60;;
18947;SDS011;9607;51.600;7.558;2023-12-20T12:52:32;18.10;;;7.32;;
18947;SDS011;9607;51.600;7.558;2023-12-20T12:55:00;17.58;;;7.40;;
18947;SDS011;9607;51.600;7.558;2023-12-20T12:57:28;17.58;;;8.32;;
18947;SDS011;9607;51.600;7.558;2023-12-20T12:59:55;22.67;;;9.27;;
18947;SDS011;9607;51.600;7.558;2023-12-20T13:02:24;20.42;;;7.63;;
18947;SDS011;9607;51.600;7.558;2023-12-20T13:04:51;22.30;;;8.35;;
18947;SDS011;9607;51.600;7.558;2023-12-20T13:07:18;20.50;;;9.85;;
18947;SDS011;9607;51.600;7.558;2023-12-20T13:09:45;21.70;;;9.02;;
18947;SDS011;9607;51.600;7.558;2023-12-20T13:12:12;18.58;;;8.55;;
18947;SDS011;9607;51.600;7.558;2023-12-20T13:14:38;26.08;;;9.40;;
18947;SDS011;9607;51.600;7.558;2023-12-20T13:17:05;24.55;;;8.20;;
18947;SDS011;9607;51.600;7.558;2023-12-20T13:19:34;23.38;;;7.97;;
18947;SDS011;9607;51.600;7.558;2023-12-20T13:22:00;18.05;;;7.82;;
18947;SDS011;9607;51.600;7.558;2023-12-20T13:24:27;17.00;;;6.97;;
18947;SDS011;9607;51.600;7.558;2023-12-20T13:26:54;13.98;;;6.35;;
18947;SDS011;9607;51.600;7.558;2023-12-20T13:29:21;19.80;;;7.78;;
18947;SDS011;9607;51.600;7.558;2023-12-20T13:31:48;14.85;;;6.30;;
18947;SDS011;9607;51.600;7.558;2023-12-20T13:34:15;22.73;;;6.38;;
18947;SDS011;9607;51.600;7.558;2023-12-20T13:36:44;25.65;;;7.10;;
18947;SDS011;9607;51.600;7.558;2023-12-20T13:39:12;20.23;;;7.15;;
18947;SDS011;9607;51.600;7.558;2023-12-20T13:41:39;19.45;;;7.00;;
18947;SDS011;9607;51.600;7.558;2023-12-20T13:44:06;16.15;;;6.45;;
18947;SDS011;9607;51.600;7.558;2023-12-20T13:46:33;16.35;;;6.75;;
18947;SDS011;9607;51.600;7.558;2023-12-20T13:48:59;12.90;;;6.30;;
18947;SDS011;9607;51.600;7.558;2023-12-20T13:51:26;11.10;;;6.63;;
18947;SDS011;9607;51.600;7.558;2023-12-20T13:53:55;15.50;;;6.57;;
18947;SDS011;9607;51.600;7.558;2023-12-20T13:56:22;16.27;;;6.97;;
18947;SDS011;9607;51.600;7.558;2023-12-20T13:58:49;13.55;;;7.10;;
18947;SDS011;9607;51.600;7.558;2023-12-20T14:01:15;22.02;;;7.53;;
18947;SDS011;9607;51.600;7.558;2023-12-20T14:03:42;22.08;;;7.93;;
18947;SDS011;9607;51.600;7.558;2023-12-20T14:06:09;20.40;;;8.02;;
18947;SDS011;9607;51.600;7.558;2023-12-20T14:08:36;20.38;;;8.13;;
18947;SDS011;9607;51.600;7.558;2023-12-20T14:11:04;21.33;;;7.53;;
18947;SDS011;9607;51.600;7.558;2023-12-20T14:13:30;22.30;;;8.10;;
18947;SDS011;9607;51.600;7.558;2023-12-20T14:15:57;15.63;;;7.35;;
18947;SDS011;9607;51.600;7.558;2023-12-20T14:18:25;16.52;;;7.68;;
18947;SDS011;9607;51.600;7.558;2023-12-20T14:20:52;16.00;;;7.82;;
18947;SDS011;9607;51.600;7.558;2023-12-20T14:23:20;17.98;;;8.07;;
18947;SDS011;9607;51.600;7.558;2023-12-20T14:25:47;20.85;;;7.95;;
18947;SDS011;9607;51.600;7.558;2023-12-20T14:28:16;20.38;;;8.02;;
18947;SDS011;9607;51.600;7.558;2023-12-20T14:30:42;16.17;;;8.00;;
18947;SDS011;9607;51.600;7.558;2023-12-20T14:33:09;16.33;;;9.05;;
18947;SDS011;9607;51.600;7.558;2023-12-20T14:35:36;14.63;;;8.15;;
18947;SDS011;9607;51.600;7.558;2023-12-20T14:38:03;19.27;;;10.02;;
18947;SDS011;9607;51.600;7.558;2023-12-20T14:40:29;19.00;;;10.43;;
18947;SDS011;9607;51.600;7.558;2023-12-20T14:42:56;19.48;;;10.05;;
18947;SDS011;9607;51.600;7.558;2023-12-20T14:45:25;20.88;;;9.68;;